Pagrindinis puslapis
METAR-TAF:

METAR-TAF

Oro uostai :

Burlengė, Švedija

platuma: 60-26N, ilguma: 015-31E, Aukštis: 145 m

Dabartinis oras

Ataskaita buvo paskelbta 27 minutes, ne 19:20 UTC
Vėjas 6 kt iš Pietvakarių
Temperatūra 18°C
Drėgmė 64%
Slėgis 1015 hPa
Matomumas 10 km arba daugiau

METAR: ESSD 021920Z AUTO 23006KT 9999 NCD 18/11 Q1015

Laikas: 21:47 (19:47 UTC)

Prognozė

Ataskaita buvo paskelbta 8 valandos ir 17 minutes, ne 11:30 UTC
Prognozė galioja nuo 02 metu 12 UTC su 02 metu 16 UTC
Vėjas 12 kt iš Pietvakarių
Matomumas 10 km arba daugiau
Su prošvaistėmis ne aukštis 2000 ft

TAF: ESSD 021130Z 0212/0216 23012KT 9999 BKN020

Orai ataskaitas ir orų prognozės (METAR, TAF).

turimą stotys yra geltonos ir raudonos taškus žemėlapyje.

Perkelti pele per norėdami pamatyti stoties vardą.

Tada spustelėkite, norėdami matyti oro stebėjimo ir prognozės.

Norėdami pakeisti žemėlapį: spustelėkite ant žalios mygtukų su juodo kryžiaus žemyn,; žalią mygtuką su brūkšneliu, jei norite nutolinti; arba žalių rodyklių gretimoms žemėlapius.


METAR-TAF: